Time;durP1;ratioP1;P1;durP2;ratioP2;P2;SDS_P1;SDS_P2;PMS_P1;PMS_P2;Temp;Humidity;BMP_temperature;BMP_pressure;BME280_temperature;BME280_humidity;BME280_pressure;Samples;Min_cycle;Max_cycle;Signal;HPM_P1;HPM_P2
2021/08/14 00:03:28;;;;;;;15.05;8.90;;;;;;;23.64;55.36;100879.41;4937970;60;21178;-79
2021/08/14 00:08:34;;;;;;;16.87;9.53;;;;;;;23.73;55.36;100884.97;4937873;60;22067;-79
2021/08/14 00:13:39;;;;;;;15.18;9.25;;;;;;;23.70;55.31;100887.55;4937779;60;21187;-78
2021/08/14 00:18:45;;;;;;;11.00;8.60;;;;;;;23.70;55.62;100884.01;4937818;60;21214;-79
2021/08/14 00:23:51;;;;;;;15.00;8.50;;;;;;;23.74;55.78;100885.30;4937980;60;21529;-79
2021/08/14 00:28:57;;;;;;;18.42;9.75;;;;;;;23.74;55.76;100879.89;4937760;60;21174;-79
2021/08/14 00:34:03;;;;;;;15.23;8.13;;;;;;;23.74;55.98;100879.38;4896451;59;21214;-78
2021/08/14 00:39:09;;;;;;;15.50;8.50;;;;;;;23.71;55.80;100874.88;4857194;61;21813;-78
2021/08/14 00:44:15;;;;;;;13.53;9.08;;;;;;;23.69;55.98;100874.23;4857382;61;21158;-79
2021/08/14 00:49:20;;;;;;;11.85;8.50;;;;;;;23.69;56.11;100875.58;4857198;61;22107;-79
2021/08/14 00:54:26;;;;;;;11.05;7.90;;;;;;;23.65;55.93;100874.33;4857180;61;21178;-79
2021/08/14 00:59:32;;;;;;;10.32;8.73;;;;;;;23.62;56.24;100866.61;4941121;58;21158;-79
2021/08/14 01:04:39;;;;;;;9.63;7.55;;;;;;;23.62;56.31;100866.61;4992488;59;22202;-79
2021/08/14 01:09:46;;;;;;;11.38;8.58;;;;;;;23.60;56.24;100861.41;4992757;59;21631;-79
2021/08/14 01:14:52;;;;;;;11.88;8.20;;;;;;;23.59;56.53;100857.03;4992554;59;21217;-79
2021/08/14 01:19:58;;;;;;;9.88;7.87;;;;;;;23.60;56.52;100859.22;4992619;59;22120;-79
2021/08/14 01:25:09;;;;;;;13.70;7.87;;;;;;;23.57;56.41;100856.38;4992531;59;21201;-79
2021/08/14 01:30:15;;;;;;;11.10;7.40;;;;;;;23.52;56.31;100852.11;4993056;59;21119;-79
2021/08/14 01:35:21;;;;;;;15.40;8.10;;;;;;;23.37;56.30;100841.88;4995786;59;21113;-79
2021/08/14 01:40:27;;;;;;;11.75;8.75;;;;;;;23.33;56.66;100854.91;4996403;59;22163;-79
2021/08/14 01:45:32;;;;;;;19.25;9.13;;;;;;;23.30;56.84;100847.71;4996549;58;21196;-79
2021/08/14 01:50:38;;;;;;;12.60;8.60;;;;;;;23.26;56.81;100841.86;4996664;59;21160;-79
2021/08/14 01:55:44;;;;;;;12.05;9.83;;;;;;;23.22;57.00;100850.56;4996641;58;21527;-79
2021/08/14 02:00:49;;;;;;;11.35;8.15;;;;;;;23.06;57.03;100865.14;5005859;59;21181;-79
2021/08/14 02:05:55;;;;;;;13.38;8.18;;;;;;;22.88;57.21;100862.03;5009199;59;21164;-79
2021/08/14 02:11:02;;;;;;;14.13;9.13;;;;;;;22.80;57.64;100860.27;5009115;59;21226;-79
2021/08/14 02:16:07;;;;;;;11.15;8.68;;;;;;;22.77;57.98;100860.64;5009220;58;21164;-79
2021/08/14 02:21:13;;;;;;;15.00;9.25;;;;;;;22.70;58.25;100869.99;5009174;59;22212;-79
2021/08/14 02:26:19;;;;;;;10.98;8.50;;;;;;;22.49;58.95;100890.66;5009200;59;21164;-78
2021/08/14 02:31:25;;;;;;;14.20;9.00;;;;;;;22.30;59.83;100897.47;5009079;59;21573;-78
2021/08/14 02:36:31;;;;;;;12.68;8.23;;;;;;;22.12;60.42;100895.64;4926348;60;21184;-79
2021/08/14 02:41:37;;;;;;;15.68;9.83;;;;;;;22.05;60.77;100891.49;4926264;60;22156;-79
2021/08/14 02:46:43;;;;;;;19.57;8.78;;;;;;;22.05;60.87;100890.15;4926190;60;21220;-79
2021/08/14 02:51:49;;;;;;;9.23;7.78;;;;;;;22.21;61.10;100894.52;4926258;60;21117;-79
2021/08/14 02:56:55;;;;;;;17.57;8.68;;;;;;;22.23;60.69;100898.71;4926318;60;21591;-79
2021/08/14 03:02:00;;;;;;;17.73;9.70;;;;;;;22.17;60.40;100899.44;4926247;60;21121;-79
2021/08/14 03:07:06;;;;;;;11.73;8.53;;;;;;;22.07;60.59;100903.77;4926385;60;21212;-79
2021/08/14 03:12:12;;;;;;;20.15;9.03;;;;;;;22.00;60.72;100916.78;4926413;60;21240;-79
2021/08/14 03:17:18;;;;;;;17.15;9.78;;;;;;;21.92;61.02;100935.19;4926236;60;21543;-79
2021/08/14 03:22:24;;;;;;;16.60;9.03;;;;;;;21.83;61.47;100937.64;4926209;60;21184;-79
2021/08/14 03:27:30;;;;;;;12.53;8.48;;;;;;;21.74;61.87;100948.14;4926866;60;21204;-79
2021/08/14 03:32:36;;;;;;;10.28;8.68;;;;;;;21.67;62.04;100959.32;4944349;59;22267;-79
2021/08/14 03:37:42;;;;;;;9.93;8.13;;;;;;;21.60;62.40;100969.95;5005590;59;22306;-79
2021/08/14 03:42:48;;;;;;;11.97;7.70;;;;;;;21.53;62.89;100958.25;4967145;59;21129;-79
2021/08/14 03:47:54;;;;;;;11.30;8.53;;;;;;;21.52;63.31;100959.77;4964904;59;21193;-80
2021/08/14 03:52:59;;;;;;;9.48;7.35;;;;;;;21.44;63.87;100975.95;4987570;59;21098;-80
2021/08/14 03:58:05;;;;;;;8.55;6.87;;;;;;;21.44;64.63;100975.95;4982318;59;21204;-80
2021/08/14 04:03:11;;;;;;;9.15;7.08;;;;;;;21.43;65.01;100981.84;4990081;59;21164;-80
2021/08/14 04:08:21;;;;;;;8.70;6.42;;;;;;;21.38;65.88;100986.44;4969738;59;21189;-80
2021/08/14 04:13:27;;;;;;;9.73;6.40;;;;;;;21.33;66.08;101002.78;4994791;59;21203;-80
2021/08/14 04:18:33;;;;;;;11.78;6.60;;;;;;;21.32;66.18;101003.28;4931017;59;21649;-80
2021/08/14 04:23:38;;;;;;;9.30;6.67;;;;;;;21.27;66.65;101005.66;4937130;59;21196;-79
2021/08/14 04:28:44;;;;;;;9.48;7.30;;;;;;;21.27;66.56;101008.34;4977404;59;21642;-79
2021/08/14 04:33:50;;;;;;;10.88;6.70;;;;;;;21.25;66.65;101005.50;4988090;59;21109;-79
2021/08/14 04:38:57;;;;;;;7.83;5.40;;;;;;;21.18;66.25;101010.73;4985146;59;21173;-80
2021/08/14 04:44:03;;;;;;;9.25;5.50;;;;;;;21.16;66.49;101018.13;4989448;59;21114;-79
2021/08/14 04:49:08;;;;;;;8.35;4.80;;;;;;;21.16;66.44;101015.44;4971924;59;21277;-80
2021/08/14 04:54:14;;;;;;;8.43;5.33;;;;;;;21.15;66.59;101021.83;4930968;59;21196;-79
2021/08/14 04:59:19;;;;;;;10.25;5.03;;;;;;;21.12;66.53;101024.03;4973747;58;21114;-79
2021/08/14 05:04:26;;;;;;;8.10;4.12;;;;;;;21.05;66.56;101026.59;5009704;59;21221;-79
2021/08/14 05:09:34;;;;;;;5.65;4.37;;;;;;;20.96;66.75;101023.59;5009620;59;21170;-80
2021/08/14 05:14:40;;;;;;;8.45;4.62;;;;;;;21.01;66.83;101031.48;5001018;59;21160;-80
2021/08/14 05:19:46;;;;;;;7.55;4.42;;;;;;;20.95;66.49;101033.51;5009635;59;21201;-79
2021/08/14 05:24:54;;;;;;;8.30;4.28;;;;;;;20.94;66.54;101040.41;5009678;59;21181;-79
2021/08/14 05:30:01;;;;;;;6.42;3.77;;;;;;;20.88;66.58;101048.67;5009766;59;21227;-79
2021/08/14 05:35:07;;;;;;;7.17;3.85;;;;;;;20.81;66.50;101052.21;5006547;59;21106;-79
2021/08/14 05:40:14;;;;;;;5.87;4.03;;;;;;;20.75;66.93;101061.82;5005473;59;21095;-79
2021/08/14 05:45:19;;;;;;;7.35;3.47;;;;;;;20.81;66.83;101054.90;5005395;59;21686;-80
2021/08/14 05:50:25;;;;;;;5.58;3.33;;;;;;;20.88;66.83;101062.62;5005448;59;21236;-79
2021/08/14 05:55:31;;;;;;;17.05;4.42;;;;;;;20.90;66.12;101060.61;5005346;59;21165;-79
2021/08/14 06:00:37;;;;;;;5.95;3.42;;;;;;;20.88;65.64;101070.19;5003374;58;21172;-79
2021/08/14 06:05:47;;;;;;;8.98;3.12;;;;;;;20.85;64.93;101075.06;4992601;59;21177;-79
2021/08/14 06:10:53;;;;;;;8.65;2.90;;;;;;;20.74;64.23;101069.55;4992801;59;21239;-79
2021/08/14 06:15:58;;;;;;;7.00;2.77;;;;;;;20.67;64.14;101059.98;4992783;59;21162;-80
2021/08/14 06:21:04;;;;;;;5.22;2.60;;;;;;;20.80;64.18;101074.22;4992665;58;21189;-80
2021/08/14 06:26:09;;;;;;;6.20;2.72;;;;;;;20.90;63.17;101070.86;4992796;59;21178;-80
2021/08/14 06:31:16;;;;;;;6.42;2.30;;;;;;;21.05;62.90;101066.94;4992696;59;21197;-81
2021/08/14 06:36:22;;;;;;;6.50;2.67;;;;;;;21.16;61.74;101069.75;4996549;59;22157;-80
2021/08/14 06:41:27;;;;;;;8.48;2.75;;;;;;;21.23;61.17;101074.30;4996714;59;21185;-79
2021/08/14 06:46:34;;;;;;;5.28;2.27;;;;;;;21.34;60.57;101075.77;4949520;59;21185;-79
2021/08/14 06:51:40;;;;;;;6.58;2.50;;;;;;;21.54;60.92;101081.56;4918429;60;21201;-81
2021/08/14 06:56:46;;;;;;;8.98;2.62;;;;;;;21.77;60.57;101091.84;4923265;59;22007;-79
2021/08/14 07:01:52;;;;;;;5.58;1.98;;;;;;;21.94;58.10;101093.92;4957966;59;21193;-79
2021/08/14 07:06:57;;;;;;;7.37;2.33;;;;;;;21.93;57.52;101100.32;4943758;59;21230;-81
2021/08/14 07:12:03;;;;;;;13.95;2.72;;;;;;;22.05;58.59;101101.10;4984352;59;21172;-80
2021/08/14 07:17:09;;;;;;;8.55;3.27;;;;;;;22.23;58.12;101094.58;4945175;59;21650;-81
2021/08/14 07:22:15;;;;;;;6.25;2.87;;;;;;;22.27;57.62;101102.63;4950147;59;21174;-80
2021/08/14 07:27:21;;;;;;;11.73;2.40;;;;;;;22.29;57.57;101099.25;4950807;59;21650;-79
2021/08/14 07:32:26;;;;;;;6.53;2.55;;;;;;;22.29;57.08;101093.86;4961647;59;21197;-79
2021/08/14 07:37:32;;;;;;;6.40;2.12;;;;;;;22.34;57.61;101100.88;4942099;58;21200;-80
2021/08/14 07:42:38;;;;;;;4.03;2.30;;;;;;;22.42;57.41;101089.53;4918786;59;22251;-79
2021/08/14 07:47:47;;;;;;;6.30;2.45;;;;;;;22.29;55.34;101100.09;4918794;59;21493;-80
2021/08/14 07:52:55;;;;;;;8.00;2.77;;;;;;;22.30;55.83;101096.89;4918847;59;21222;-79
2021/08/14 07:58:01;;;;;;;7.87;3.30;;;;;;;22.56;55.99;101089.23;4918815;59;21172;-78
2021/08/14 08:03:09;;;;;;;5.97;2.30;;;;;;;22.77;55.06;101096.62;4923394;59;21516;-79
2021/08/14 08:08:14;;;;;;;3.77;1.50;;;;;;;22.84;52.42;101094.03;4930882;59;21180;-80
2021/08/14 08:13:20;;;;;;;4.85;1.98;;;;;;;22.77;52.99;101100.16;4931142;59;21245;-80
2021/08/14 08:18:26;;;;;;;3.33;2.52;;;;;;;22.88;51.97;101090.80;4978382;58;21180;-80
2021/08/14 08:23:32;;;;;;;9.80;2.27;;;;;;;22.89;52.50;101098.37;5004149;58;21768;-80
2021/08/14 08:28:38;;;;;;;7.28;2.72;;;;;;;23.01;51.48;101096.89;5004478;59;21165;-80
2021/08/14 08:33:44;;;;;;;3.95;1.50;;;;;;;23.05;51.36;101097.69;5009567;59;22276;-79
2021/08/14 08:38:49;;;;;;;4.85;2.10;;;;;;;23.06;49.18;101089.08;4972868;59;21176;-80
2021/08/14 08:43:55;;;;;;;3.40;1.87;;;;;;;23.05;50.84;101099.55;4935315;59;22016;-79
2021/08/14 08:49:03;;;;;;;3.80;1.92;;;;;;;23.23;49.20;101096.44;4982729;58;21169;-80
2021/08/14 08:54:12;;;;;;;8.08;2.30;;;;;;;23.33;50.30;101095.15;4982580;59;21234;-79
2021/08/14 08:59:18;;;;;;;7.67;2.37;;;;;;;23.33;48.63;101087.05;4961401;59;21208;-78
2021/08/14 09:04:30;;;;;;;3.42;2.00;;;;;;;23.41;49.19;101083.39;4999610;59;21153;-79
2021/08/14 09:09:36;;;;;;;2.55;1.52;;;;;;;23.66;48.79;101075.84;4996907;59;21560;-79
2021/08/14 09:14:50;;;;;;;4.55;1.92;;;;;;;23.78;48.18;101090.00;4996830;59;21114;-79
2021/08/14 09:20:20;;;;;;;2.95;1.50;;;;;;;23.93;48.59;101075.09;4993645;58;21169;-82
2021/08/14 09:25:26;;;;;;;7.95;1.95;;;;;;;24.22;48.66;101072.77;4996168;58;21179;-81
2021/08/14 09:30:58;;;;;;;3.37;2.20;;;;;;;24.40;46.87;101079.09;4996238;58;21201;-79
2021/08/14 09:36:09;;;;;;;7.62;2.55;;;;;;;24.42;47.16;101078.38;4996281;58;21157;-79
2021/08/14 09:41:21;;;;;;;5.97;1.97;;;;;;;24.52;46.29;101068.05;4996712;58;21169;-79
2021/08/14 09:46:43;;;;;;;4.70;1.77;;;;;;;24.65;46.19;101070.84;4996497;58;21189;-79
2021/08/14 09:51:49;;;;;;;7.50;2.40;;;;;;;24.68;44.64;101081.79;4996570;58;21507;-79
2021/08/14 09:56:54;;;;;;;3.55;2.00;;;;;;;24.80;45.68;101081.55;4996263;58;21173;-79
2021/08/14 10:02:00;;;;;;;3.77;2.20;;;;;;;24.89;44.39;101074.97;4996145;58;21121;-79
2021/08/14 10:07:06;;;;;;;3.17;2.25;;;;;;;25.07;43.39;101077.16;5008933;58;21157;-80
2021/08/14 10:12:14;;;;;;;6.05;2.55;;;;;;;25.23;43.87;101073.60;5011587;58;21157;-80
2021/08/14 10:17:29;;;;;;;3.90;1.82;;;;;;;25.41;41.85;101083.05;5009708;58;21169;-79
2021/08/14 10:22:27;;;;;;;9.58;2.80;;;;;;;25.24;40.38;101071.21;5008002;57;21223;-79
2021/08/14 10:27:58;;;;;;;4.28;2.02;;;;;;;25.36;42.36;101074.17;5009977;58;21172;-79
2021/08/14 10:33:04;;;;;;;5.58;2.47;;;;;;;25.31;42.41;101066.36;5009806;58;21169;-79
2021/08/14 10:38:14;;;;;;;5.08;2.17;;;;;;;25.28;42.52;101052.70;5012554;58;21204;-79
2021/08/14 10:43:19;;;;;;;11.12;2.90;;;;;;;25.39;41.04;101060.75;5003054;58;21600;-79
2021/08/14 10:48:29;;;;;;;7.05;2.50;;;;;;;25.34;41.02;101047.84;5010268;58;21660;-79
2021/08/14 10:53:44;;;;;;;7.72;2.10;;;;;;;25.42;40.44;101049.52;5004823;58;21226;-80
2021/08/14 10:58:50;;;;;;;5.70;1.55;;;;;;;25.57;41.46;101040.71;5010042;58;22152;-79
2021/08/14 11:03:55;;;;;;;4.47;2.20;;;;;;;25.81;40.06;101039.35;5008253;58;21113;-79
2021/08/14 11:09:24;;;;;;;7.08;2.05;;;;;;;25.90;39.17;101034.88;4997539;58;21654;-79
2021/08/14 11:14:47;;;;;;;8.65;3.15;;;;;;;26.01;37.97;101024.45;4996299;58;21197;-79
2021/08/14 11:19:58;;;;;;;8.10;2.40;;;;;;;25.93;39.01;101029.56;5008085;58;21158;-79
2021/08/14 11:25:13;;;;;;;6.62;2.45;;;;;;;26.13;38.58;101026.84;5077672;58;21220;-79
2021/08/14 11:30:22;;;;;;;5.17;2.25;;;;;;;26.07;38.53;101017.69;5034880;58;21157;-80
2021/08/14 11:35:26;;;;;;;5.60;2.77;;;;;;;25.89;37.64;101017.45;4935625;59;21234;-79
2021/08/14 11:40:39;;;;;;;4.45;2.60;;;;;;;25.85;38.99;101010.78;4949544;59;21168;-79
2021/08/14 11:45:47;;;;;;;4.60;2.67;;;;;;;26.09;39.31;101001.22;4974854;59;22063;-79
2021/08/14 11:50:54;;;;;;;5.00;2.47;;;;;;;26.53;39.75;100989.20;4997265;59;21165;-77
2021/08/14 11:56:11;;;;;;;9.03;3.87;;;;;;;26.73;37.95;100986.97;4975212;59;21098;-77
2021/08/14 12:01:17;;;;;;;4.40;2.00;;;;;;;26.79;36.93;100983.38;4961278;59;21243;-76
2021/08/14 12:06:23;;;;;;;10.25;2.47;;;;;;;26.86;37.31;100974.18;4997176;58;21163;-77
2021/08/14 12:11:30;;;;;;;3.60;2.00;;;;;;;27.08;36.69;100968.47;5009475;59;22123;-77
2021/08/14 12:16:39;;;;;;;4.28;2.25;;;;;;;27.26;36.42;100967.23;5007485;59;21161;-77
2021/08/14 12:21:47;;;;;;;13.85;6.17;;;;;;;27.28;35.97;100955.09;5009355;59;21536;-77
2021/08/14 12:26:53;;;;;;;11.00;2.98;;;;;;;27.40;36.45;100950.32;5004994;59;21165;-78
2021/08/14 12:31:59;;;;;;;7.45;2.20;;;;;;;27.38;36.29;100940.20;5000536;59;21512;-77
2021/08/14 12:37:11;;;;;;;4.97;2.58;;;;;;;27.41;37.50;100938.41;5008433;59;21189;-77
2021/08/14 12:42:22;;;;;;;9.18;2.75;;;;;;;27.39;36.51;100937.79;5004848;59;21169;-77
2021/08/14 12:47:34;;;;;;;4.58;2.20;;;;;;;27.49;37.95;100934.08;5007245;59;21146;-77
2021/08/14 12:52:59;;;;;;;5.90;2.98;;;;;;;27.60;36.95;100930.16;5009193;59;22139;-77
2021/08/14 12:58:09;;;;;;;3.55;2.45;;;;;;;27.66;35.20;100920.27;4993375;58;21169;-78
2021/08/14 13:03:15;;;;;;;7.70;3.08;;;;;;;27.81;35.95;100928.92;4969195;59;21168;-77
2021/08/14 13:08:21;;;;;;;8.35;2.55;;;;;;;27.87;36.10;100917.70;5009578;59;21162;-77
2021/08/14 13:13:26;;;;;;;7.47;2.65;;;;;;;27.96;35.23;100918.53;5043103;58;21190;-77
2021/08/14 13:18:32;;;;;;;5.80;2.70;;;;;;;28.04;35.97;100908.45;5091115;58;22238;-77
2021/08/14 13:23:38;;;;;;;6.85;2.83;;;;;;;28.05;35.52;100901.95;5091022;58;21508;-78
2021/08/14 13:28:43;;;;;;;8.45;2.72;;;;;;;28.21;36.12;100898.16;5091158;57;21174;-78
2021/08/14 13:33:49;;;;;;;8.80;3.42;;;;;;;28.26;36.49;100888.77;5052776;58;21172;-78
2021/08/14 13:38:55;;;;;;;4.55;2.33;;;;;;;28.27;36.61;100892.32;5009433;59;21594;-78
2021/08/14 13:44:04;;;;;;;4.47;2.20;;;;;;;28.41;36.67;100884.87;5009443;59;21698;-78
2021/08/14 13:49:12;;;;;;;6.55;2.50;;;;;;;28.49;36.15;100884.55;5009459;59;21133;-78
2021/08/14 13:54:17;;;;;;;6.95;2.52;;;;;;;28.32;36.84;100870.72;5009641;59;21218;-78
2021/08/14 13:59:23;;;;;;;7.12;3.17;;;;;;;28.04;36.92;100867.66;5009553;59;21169;-78
2021/08/14 14:04:29;;;;;;;6.67;2.80;;;;;;;27.65;37.64;100865.64;5009580;58;21230;-78
2021/08/14 14:09:34;;;;;;;3.52;2.77;;;;;;;27.73;38.49;100859.06;5009265;59;21145;-77
2021/08/14 14:14:40;;;;;;;6.45;3.20;;;;;;;28.09;37.55;100853.70;4957515;59;21670;-77
2021/08/14 14:19:47;;;;;;;7.83;3.17;;;;;;;28.30;36.18;100853.26;4930842;60;21236;-78
2021/08/14 14:24:52;;;;;;;19.73;3.98;;;;;;;28.36;36.45;100851.53;4930694;59;21204;-77
2021/08/14 14:29:58;;;;;;;9.40;3.10;;;;;;;28.28;36.51;100848.57;4930722;59;21180;-79
2021/08/14 14:35:05;;;;;;;2.95;2.25;;;;;;;28.17;36.50;100836.23;4984350;59;21745;-82
2021/08/14 14:40:11;;;;;;;8.03;3.20;;;;;;;28.32;36.73;100842.98;5005302;59;21110;-80
2021/08/14 14:45:16;;;;;;;6.35;2.75;;;;;;;28.52;36.61;100839.20;5005324;59;21173;-80
2021/08/14 14:50:22;;;;;;;4.15;2.40;;;;;;;28.64;36.55;100833.27;5003801;58;21665;-83
2021/08/14 14:55:28;;;;;;;4.28;2.67;;;;;;;28.35;35.93;100828.94;4975299;59;21508;-81
2021/08/14 15:00:34;;;;;;;8.90;3.58;;;;;;;28.27;36.38;100822.42;5017746;58;21214;-81
2021/08/14 15:05:40;;;;;;;13.15;3.30;;;;;;;28.41;36.90;100825.01;5012531;58;21226;-81
2021/08/14 15:10:46;;;;;;;9.18;3.15;;;;;;;28.53;35.72;100824.00;4997568;59;21169;-79
2021/08/14 15:15:51;;;;;;;8.25;3.65;;;;;;;28.67;35.74;100801.52;4997096;59;21213;-79
2021/08/14 15:20:57;;;;;;;23.02;12.07;;;;;;;28.78;35.23;100793.08;4997094;59;21200;-78
2021/08/14 15:26:03;;;;;;;14.07;3.62;;;;;;;28.83;36.37;100795.45;4959828;59;21185;-81
2021/08/14 15:31:12;;;;;;;12.78;3.42;;;;;;;28.74;35.36;100794.59;4976672;59;21165;-80
2021/08/14 15:36:17;;;;;;;7.33;4.78;;;;;;;28.79;35.65;100785.22;4993428;59;21111;-78
2021/08/14 15:41:22;;;;;;;6.83;3.50;;;;;;;28.84;36.14;100779.41;4993929;58;21140;-79
2021/08/14 15:46:28;;;;;;;3.83;3.02;;;;;;;28.79;35.40;100770.24;4994624;59;21177;-80
2021/08/14 15:51:35;;;;;;;7.10;3.08;;;;;;;28.67;35.44;100772.94;4994714;59;21707;-81
2021/08/14 15:56:40;;;;;;;8.13;3.08;;;;;;;28.62;34.36;100771.42;4994735;59;21111;-83
2021/08/14 16:01:46;;;;;;;3.83;2.95;;;;;;;28.61;35.48;100780.66;4994820;59;21158;-79
2021/08/14 16:06:52;;;;;;;6.12;3.02;;;;;;;28.54;35.30;100769.88;4994156;58;21270;-82
2021/08/14 16:12:00;;;;;;;6.47;3.35;;;;;;;28.47;35.38;100766.93;4994213;59;21266;-81
2021/08/14 16:17:06;;;;;;;4.75;3.30;;;;;;;28.37;35.60;100755.78;4994306;59;21746;-80
2021/08/14 16:22:11;;;;;;;9.23;3.55;;;;;;;28.31;35.56;100765.67;4994840;59;21171;-84
2021/08/14 16:27:18;;;;;;;16.75;4.47;;;;;;;28.41;36.22;100750.19;4932169;59;21173;-82
2021/08/14 16:32:24;;;;;;;6.05;4.00;;;;;;;28.53;36.61;100745.61;4973186;59;21166;-82
2021/08/14 16:37:29;;;;;;;12.15;4.55;;;;;;;28.56;36.44;100743.80;4997151;59;21165;-82
2021/08/14 16:42:35;;;;;;;11.65;3.92;;;;;;;28.33;36.92;100741.27;4997366;59;21110;-79
2021/08/14 16:47:41;;;;;;;12.35;4.35;;;;;;;28.23;36.73;100734.73;4997228;59;21685;-82
2021/08/14 16:52:50;;;;;;;9.65;4.03;;;;;;;28.14;37.34;100726.53;4997251;59;21202;-80
2021/08/14 16:57:55;;;;;;;6.72;2.75;;;;;;;28.14;37.08;100729.25;4997215;59;21223;-82
2021/08/14 17:03:01;;;;;;;3.62;3.37;;;;;;;28.03;36.75;100728.67;4997149;59;21166;-82
2021/08/14 17:08:07;;;;;;;7.92;3.87;;;;;;;27.88;37.14;100724.98;4998678;58;21675;-81
2021/08/14 17:13:14;;;;;;;8.55;4.72;;;;;;;27.82;37.62;100723.16;5009822;59;21204;-79
2021/08/14 17:18:19;;;;;;;6.78;5.80;;;;;;;27.88;37.71;100726.34;5010105;59;21169;-82
2021/08/14 17:23:25;;;;;;;10.58;6.95;;;;;;;27.87;37.78;100716.52;5010057;59;21276;-79
2021/08/14 17:28:30;;;;;;;6.10;3.27;;;;;;;27.80;37.85;100715.26;4997049;59;21168;-83
2021/08/14 17:33:37;;;;;;;6.30;4.05;;;;;;;27.69;37.15;100715.99;4963650;59;21168;-79
2021/08/14 17:38:42;;;;;;;4.78;3.27;;;;;;;27.51;37.65;100720.02;4976605;59;21173;-84
2021/08/14 17:43:48;;;;;;;6.78;4.20;;;;;;;27.33;37.57;100720.02;4931061;59;21189;-81
2021/08/14 17:48:54;;;;;;;6.03;3.92;;;;;;;27.19;38.06;100720.12;4995158;59;21156;-82
2021/08/14 17:53:59;;;;;;;11.40;4.28;;;;;;;27.10;38.50;100711.14;4969147;59;21196;-83
2021/08/14 17:59:05;;;;;;;9.53;4.05;;;;;;;27.03;38.55;100711.73;4954500;59;21172;-81
2021/08/14 18:04:11;;;;;;;11.68;4.30;;;;;;;26.94;38.57;100709.28;5012951;58;22284;-81
2021/08/14 18:09:17;;;;;;;7.65;3.92;;;;;;;26.86;38.62;100706.83;5006172;59;21165;-79
2021/08/14 18:14:22;;;;;;;5.28;3.80;;;;;;;26.75;38.61;100708.88;5006044;59;21667;-76
2021/08/14 18:19:28;;;;;;;10.08;7.20;;;;;;;26.66;38.92;100711.56;5005745;59;21797;-77
2021/08/14 18:24:35;;;;;;;12.37;5.60;;;;;;;26.55;39.12;100720.41;5005379;59;21201;-78
2021/08/14 18:29:40;;;;;;;15.35;6.85;;;;;;;26.44;39.56;100725.98;5006177;59;21090;-80
2021/08/14 18:34:46;;;;;;;7.80;5.95;;;;;;;26.42;40.58;100722.69;5006765;59;21201;-79
2021/08/14 18:39:52;;;;;;;7.62;4.87;;;;;;;26.43;41.01;100728.94;4979174;59;21168;-84
2021/08/14 18:44:57;;;;;;;6.28;4.50;;;;;;;26.45;41.74;100732.23;4975964;59;21177;-80
2021/08/14 18:50:04;;;;;;;34.10;11.60;;;;;;;26.48;41.93;100735.87;4978241;59;21542;-81
2021/08/14 18:55:10;;;;;;;145.60;69.42;;;;;;;26.51;41.78;100732.73;4970514;59;21173;-82
2021/08/14 19:00:17;;;;;;;52.48;22.48;;;;;;;26.48;42.09;100722.31;4974266;59;21201;-80
2021/08/14 19:05:23;;;;;;;36.90;16.15;;;;;;;26.39;42.74;100722.28;5001093;58;21652;-81
2021/08/14 19:10:29;;;;;;;31.75;9.90;;;;;;;26.25;42.81;100715.55;4966758;59;21176;-79
2021/08/14 19:15:34;;;;;;;16.23;7.25;;;;;;;26.11;43.19;100716.66;4949936;59;21167;-86
2021/08/14 19:20:41;;;;;;;24.75;9.18;;;;;;;26.00;43.41;100715.13;4972452;59;21206;-79
2021/08/14 19:25:48;;;;;;;32.58;12.15;;;;;;;25.59;43.63;100721.70;4998017;59;21467;-79
2021/08/14 19:30:53;;;;;;;35.83;12.95;;;;;;;25.42;44.71;100723.19;4997550;59;21249;-81
2021/08/14 19:36:00;;;;;;;76.28;15.20;;;;;;;25.32;45.20;100723.63;4993613;59;21173;-80
2021/08/14 19:41:05;;;;;;;61.85;13.90;;;;;;;25.16;45.48;100716.77;4993146;59;21170;-83
2021/08/14 19:46:11;;;;;;;65.05;14.63;;;;;;;25.11;45.83;100710.31;4992449;59;21166;-80
2021/08/14 19:51:18;;;;;;;56.40;22.65;;;;;;;25.07;46.08;100710.41;4978018;59;21185;-83
2021/08/14 19:56:23;;;;;;;40.12;18.35;;;;;;;25.02;46.24;100707.52;4957360;59;21161;-81
2021/08/14 20:01:29;;;;;;;29.63;17.10;;;;;;;24.98;46.37;100712.51;4974741;59;21724;-80
2021/08/14 20:06:35;;;;;;;33.33;17.42;;;;;;;24.92;46.61;100713.81;4975221;59;21168;-80
2021/08/14 20:11:41;;;;;;;55.48;21.80;;;;;;;24.84;46.75;100712.16;4954976;58;21168;-84
2021/08/14 20:16:47;;;;;;;53.05;21.97;;;;;;;24.74;46.72;100711.23;4974902;59;21202;-83
2021/08/14 20:21:52;;;;;;;54.25;24.00;;;;;;;24.62;46.99;100713.38;4975314;59;21173;-82
2021/08/14 20:26:59;;;;;;;44.05;19.73;;;;;;;24.53;47.38;100711.40;4996345;59;21215;-79
2021/08/14 20:32:05;;;;;;;43.10;17.02;;;;;;;24.43;47.67;100713.67;4995695;59;21103;-81
2021/08/14 20:37:11;;;;;;;63.38;23.90;;;;;;;24.17;48.05;100708.97;4992405;59;21166;-83
2021/08/14 20:42:19;;;;;;;59.83;24.50;;;;;;;23.92;48.65;100715.95;4992282;58;21193;-82
2021/08/14 20:47:25;;;;;;;47.62;19.42;;;;;;;23.78;49.34;100714.55;4992630;59;21245;-82
2021/08/14 20:52:31;;;;;;;36.85;17.00;;;;;;;23.73;49.72;100712.12;4992507;59;21249;-84
2021/08/14 20:57:37;;;;;;;28.30;15.88;;;;;;;23.64;49.81;100718.22;4992805;59;21227;-80
2021/08/14 21:02:43;;;;;;;25.55;11.25;;;;;;;23.52;49.90;100708.17;4993223;59;21165;-79
2021/08/14 21:07:48;;;;;;;32.70;10.78;;;;;;;23.38;50.42;100709.90;4992629;59;22097;-81
2021/08/14 21:12:54;;;;;;;18.23;9.93;;;;;;;23.33;50.66;100704.28;4998949;58;21189;-83
2021/08/14 21:18:02;;;;;;;16.97;9.13;;;;;;;23.19;50.64;100697.96;5005093;59;21181;-81
2021/08/14 21:23:07;;;;;;;16.40;8.95;;;;;;;23.15;51.05;100700.72;5004716;59;21170;-81
2021/08/14 21:28:13;;;;;;;15.72;7.15;;;;;;;23.06;51.08;100697.35;5006153;59;22238;-82
2021/08/14 21:33:19;;;;;;;15.58;7.30;;;;;;;23.05;51.54;100698.37;5006967;59;21195;-83
2021/08/14 21:38:25;;;;;;;16.10;8.28;;;;;;;23.01;51.65;100694.91;5008655;59;21169;-82
2021/08/14 21:43:31;;;;;;;23.65;11.40;;;;;;;22.97;51.88;100700.37;5008742;58;21169;-83
2021/08/14 21:48:36;;;;;;;20.50;10.50;;;;;;;22.84;51.70;100690.82;5008906;59;21184;-80
2021/08/14 21:53:43;;;;;;;19.30;11.90;;;;;;;22.78;51.95;100695.12;5008638;59;21180;-81
2021/08/14 21:58:49;;;;;;;18.20;11.18;;;;;;;22.74;52.21;100688.44;5008398;59;21212;-82
2021/08/14 22:03:55;;;;;;;12.35;7.85;;;;;;;22.69;52.82;100684.13;5008877;59;21262;-83
2021/08/14 22:09:00;;;;;;;14.18;8.95;;;;;;;22.59;53.47;100680.42;5008572;58;21222;-82
2021/08/14 22:14:06;;;;;;;18.07;8.73;;;;;;;22.54;53.73;100673.41;5000857;59;21177;-83
2021/08/14 22:19:12;;;;;;;13.70;8.00;;;;;;;22.51;53.79;100670.27;4996511;59;21172;-84
2021/08/14 22:24:18;;;;;;;14.93;8.65;;;;;;;22.44;53.70;100671.56;4996728;59;21615;-84
2021/08/14 22:29:25;;;;;;;12.37;8.28;;;;;;;22.23;53.61;100668.84;4996291;59;21530;-84
2021/08/14 22:34:31;;;;;;;14.53;8.70;;;;;;;22.08;54.15;100661.65;4994079;59;21288;-85
2021/08/14 22:39:36;;;;;;;19.57;7.75;;;;;;;21.98;54.53;100661.61;4992323;58;21162;-81
2021/08/14 22:44:42;;;;;;;12.43;7.90;;;;;;;21.92;55.07;100660.50;4992260;59;21177;-83
2021/08/14 22:49:47;;;;;;;12.98;7.85;;;;;;;21.84;55.16;100658.44;4992558;59;21168;-84
2021/08/14 22:54:52;;;;;;;14.65;7.45;;;;;;;21.75;55.34;100651.80;4993414;58;21190;-83
2021/08/14 22:59:58;;;;;;;14.78;7.90;;;;;;;21.66;55.38;100648.90;4992892;59;21548;-85
2021/08/14 23:05:06;;;;;;;12.18;7.42;;;;;;;21.57;55.78;100635.72;4992805;59;21123;-82
2021/08/14 23:10:12;;;;;;;17.23;9.25;;;;;;;21.53;56.17;100631.23;4992946;59;22233;-83
2021/08/14 23:15:18;;;;;;;90.12;45.55;;;;;;;21.47;56.18;100635.17;5001856;58;21251;-83
2021/08/14 23:20:25;;;;;;;105.10;55.55;;;;;;;21.38;56.34;100635.80;5005551;59;21181;-82
2021/08/14 23:25:31;;;;;;;112.28;60.90;;;;;;;21.30;56.51;100634.02;5005435;59;22199;-81
2021/08/14 23:30:44;;;;;;;47.08;21.68;;;;;;;21.23;56.68;100641.69;5005590;58;21217;-83
2021/08/14 23:35:46;;;;;;;39.88;22.87;;;;;;;21.10;56.90;100627.48;5008531;58;21172;-85